Time;durP1;ratioP1;P1;durP2;ratioP2;P2;SDS_P1;SDS_P2;PMS_P1;PMS_P2;Temp;Humidity;BMP_temperature;BMP_pressure;BME280_temperature;BME280_humidity;BME280_pressure;Samples;Min_cycle;Max_cycle;Signal;HPM_P1;HPM_P2
2022/05/31 00:01:49;;;;;;;8.93;4.50;;;9.00;1.00;;;;;;5074955;28;20210;-61
2022/05/31 00:04:16;;;;;;;9.07;4.43;;;9.00;1.00;;;;;;5074553;28;20227;-61
2022/05/31 00:06:44;;;;;;;8.47;4.47;;;8.90;1.00;;;;;;5074697;28;20205;-60
2022/05/31 00:09:11;;;;;;;7.17;4.60;;;9.00;1.00;;;;;;5074913;28;20234;-61
2022/05/31 00:11:38;;;;;;;8.13;4.43;;;9.00;1.00;;;;;;5074876;28;20214;-61
2022/05/31 00:14:05;;;;;;;7.77;4.77;;;9.00;1.00;;;;;;5074460;28;20231;-61
2022/05/31 00:16:33;;;;;;;7.33;4.80;;;9.00;99.90;;;;;;5074152;28;20274;-61
2022/05/31 00:19:00;;;;;;;7.97;4.17;;;9.00;99.90;;;;;;5074518;28;20672;-60
2022/05/31 00:21:38;;;;;;;9.47;4.90;;;8.90;1.00;;;;;;5074566;28;20678;-60
2022/05/31 00:24:06;;;;;;;7.70;5.03;;;8.90;1.00;;;;;;5074301;28;20317;-60
2022/05/31 00:26:33;;;;;;;9.87;4.50;;;8.90;99.90;;;;;;5074306;28;20271;-61
2022/05/31 00:29:00;;;;;;;5.47;4.40;;;8.90;99.90;;;;;;5074237;28;20715;-61
2022/05/31 00:31:26;;;;;;;6.57;4.47;;;8.90;99.90;;;;;;5074302;28;20294;-61
2022/05/31 00:33:55;;;;;;;6.23;4.60;;;8.90;99.90;;;;;;5074139;28;20222;-61
2022/05/31 00:36:22;;;;;;;5.80;4.27;;;8.90;99.90;;;;;;5073674;28;20269;-61
2022/05/31 00:38:49;;;;;;;5.27;4.50;;;8.90;1.00;;;;;;5074125;28;20267;-61
2022/05/31 00:41:26;;;;;;;6.03;4.33;;;8.90;1.00;;;;;;5073956;28;20259;-61
2022/05/31 00:43:57;;;;;;;6.77;4.20;;;8.90;1.00;;;;;;5073642;28;20321;-61
2022/05/31 00:46:27;;;;;;;5.33;4.30;;;8.90;1.00;;;;;;5073959;28;20207;-61
2022/05/31 00:48:58;;;;;;;7.40;4.93;;;8.90;1.00;;;;;;5074532;28;20267;-61
2022/05/31 00:51:32;;;;;;;5.90;4.53;;;8.90;1.00;;;;;;5074012;28;20258;-61
2022/05/31 00:54:03;;;;;;;8.70;4.93;;;8.90;1.00;;;;;;5074087;28;20285;-61
2022/05/31 00:56:30;;;;;;;7.13;4.43;;;8.90;1.00;;;;;;5073350;28;20233;-61
2022/05/31 00:59:01;;;;;;;5.70;4.40;;;8.90;1.00;;;;;;5074061;28;20215;-61
2022/05/31 01:01:30;;;;;;;5.57;4.50;;;8.90;1.00;;;;;;5073738;28;20285;-61
2022/05/31 01:03:59;;;;;;;7.37;4.90;;;8.90;1.00;;;;;;5073576;28;20312;-61
2022/05/31 01:06:26;;;;;;;5.47;4.40;;;8.90;1.00;;;;;;5073323;28;20220;-61
2022/05/31 01:08:56;;;;;;;8.07;5.50;;;8.90;1.00;;;;;;5073651;28;20263;-60
2022/05/31 01:11:27;;;;;;;7.73;4.50;;;8.80;1.00;;;;;;5073585;28;20209;-61
2022/05/31 01:13:54;;;;;;;9.03;4.67;;;8.80;1.00;;;;;;5073757;28;20223;-61
2022/05/31 01:16:21;;;;;;;5.30;4.63;;;8.80;1.00;;;;;;5072979;28;20232;-61
2022/05/31 01:18:48;;;;;;;5.53;4.23;;;8.70;99.90;;;;;;5073538;28;20258;-61
2022/05/31 01:21:16;;;;;;;8.30;4.77;;;8.70;99.90;;;;;;5073327;28;20625;-61
2022/05/31 01:23:54;;;;;;;6.93;5.20;;;8.70;99.90;;;;;;5073223;28;20772;-61
2022/05/31 01:26:28;;;;;;;8.50;4.77;;;8.60;1.00;;;;;;5073122;28;20235;-60
2022/05/31 01:29:02;;;;;;;6.63;4.60;;;8.60;1.00;;;;;;5073167;28;20204;-61
2022/05/31 01:31:33;;;;;;;7.27;5.30;;;8.60;1.00;;;;;;5073297;28;20208;-61
2022/05/31 01:34:04;;;;;;;4.90;4.10;;;8.60;1.00;;;;;;5072610;28;20229;-61
2022/05/31 01:36:39;;;;;;;6.30;4.60;;;8.60;1.00;;;;;;5072891;28;20302;-60
2022/05/31 01:39:11;;;;;;;6.27;4.60;;;8.60;1.00;;;;;;5072981;28;20208;-60
2022/05/31 01:41:43;;;;;;;7.40;4.73;;;8.60;1.00;;;;;;5073055;28;20217;-61
2022/05/31 01:44:14;;;;;;;6.60;4.07;;;8.50;1.00;;;;;;5072569;28;20256;-61
2022/05/31 01:46:41;;;;;;;9.37;4.87;;;8.50;1.00;;;;;;5072722;28;20209;-61
2022/05/31 01:49:12;;;;;;;6.50;4.40;;;8.50;1.00;;;;;;5072761;28;20262;-61
2022/05/31 01:51:42;;;;;;;6.13;4.07;;;8.50;1.00;;;;;;5072888;28;20205;-60
2022/05/31 01:54:10;;;;;;;8.90;4.23;;;8.50;1.00;;;;;;5072597;28;20229;-60
2022/05/31 01:56:38;;;;;;;5.43;4.30;;;8.50;1.00;;;;;;5072213;28;20221;-61
2022/05/31 01:59:05;;;;;;;6.20;4.63;;;8.60;1.00;;;;;;5072786;28;20213;-61
2022/05/31 02:01:34;;;;;;;11.90;4.77;;;8.60;1.00;;;;;;5072636;28;20721;-61
2022/05/31 02:04:01;;;;;;;5.87;4.20;;;8.60;1.00;;;;;;5072570;28;20233;-61
2022/05/31 02:06:31;;;;;;;7.60;4.53;;;8.60;1.00;;;;;;5071975;28;20227;-61
2022/05/31 02:08:59;;;;;;;5.80;4.07;;;8.70;1.00;;;;;;5072538;28;20847;-61
2022/05/31 02:11:26;;;;;;;5.67;3.87;;;8.70;1.00;;;;;;5072125;28;20214;-60
2022/05/31 02:13:53;;;;;;;6.27;3.90;;;8.70;1.00;;;;;;5072433;28;20275;-61
2022/05/31 02:16:20;;;;;;;5.47;3.97;;;8.70;1.00;;;;;;5071108;28;20723;-60
2022/05/31 02:21:35;;;;;;;5.63;3.40;;;8.80;1.00;;;;;;5072199;28;20259;-61
2022/05/31 02:24:05;;;;;;;6.73;4.00;;;8.80;1.00;;;;;;5072145;28;20229;-61
2022/05/31 02:26:32;;;;;;;7.97;3.90;;;8.80;1.00;;;;;;5071686;28;20216;-61
2022/05/31 02:28:59;;;;;;;6.20;3.50;;;8.80;1.00;;;;;;5072171;28;20241;-60
2022/05/31 02:31:26;;;;;;;8.20;3.90;;;8.80;1.00;;;;;;5071911;28;20215;-61
2022/05/31 02:33:53;;;;;;;6.93;3.70;;;8.80;1.00;;;;;;5072091;28;20629;-61
2022/05/31 02:36:19;;;;;;;5.57;3.33;;;8.80;1.00;;;;;;5071241;28;20224;-61
2022/05/31 02:38:47;;;;;;;7.27;3.93;;;8.80;1.00;;;;;;5072021;28;20260;-61
2022/05/31 02:41:15;;;;;;;4.13;3.47;;;8.90;1.00;;;;;;5072007;28;20202;-61
2022/05/31 02:43:42;;;;;;;3.80;3.03;;;8.90;1.00;;;;;;5071917;28;20222;-61
2022/05/31 02:46:08;;;;;;;7.03;3.30;;;8.90;99.90;;;;;;5071744;28;20263;-60
2022/05/31 02:48:35;;;;;;;4.23;3.03;;;8.90;99.90;;;;;;5071876;28;20213;-61
2022/05/31 02:51:02;;;;;;;5.73;3.60;;;9.00;99.90;;;;;;5071601;28;20204;-61
2022/05/31 02:53:29;;;;;;;4.23;3.20;;;9.00;99.90;;;;;;5071896;28;20229;-60
2022/05/31 02:55:56;;;;;;;6.03;3.20;;;9.00;99.90;;;;;;5071688;28;20348;-61
2022/05/31 02:58:24;;;;;;;5.93;3.27;;;9.00;1.00;;;;;;5071759;28;20223;-61
2022/05/31 03:00:51;;;;;;;6.47;3.13;;;9.00;1.00;;;;;;5071804;28;20201;-61
2022/05/31 03:03:18;;;;;;;4.67;3.03;;;9.00;1.00;;;;;;5071395;28;20255;-61
2022/05/31 03:05:45;;;;;;;4.07;3.30;;;9.10;1.00;;;;;;5071698;28;20231;-61
2022/05/31 03:08:12;;;;;;;4.43;3.00;;;9.10;1.00;;;;;;5071396;28;20266;-60
2022/05/31 03:10:44;;;;;;;6.30;3.20;;;9.10;1.00;;;;;;5071768;28;20211;-61
2022/05/31 03:13:12;;;;;;;4.93;3.13;;;9.10;1.00;;;;;;5071525;28;20237;-61
2022/05/31 03:15:40;;;;;;;7.03;3.00;;;9.10;1.00;;;;;;5071458;28;20750;-61
2022/05/31 03:18:10;;;;;;;7.37;3.47;;;9.10;1.00;;;;;;5071168;28;20229;-61
2022/05/31 03:20:42;;;;;;;9.33;3.50;;;9.10;1.00;;;;;;5071501;28;20260;-61
2022/05/31 03:23:14;;;;;;;6.27;3.80;;;9.10;1.00;;;;;;5072166;28;20226;-61
2022/05/31 03:25:42;;;;;;;4.27;3.07;;;9.10;99.90;;;;;;5071966;28;20215;-60
2022/05/31 03:28:10;;;;;;;4.97;3.87;;;9.20;99.90;;;;;;5073548;28;20208;-60
2022/05/31 03:30:38;;;;;;;7.77;3.40;;;9.20;99.90;;;;;;5075504;28;20207;-61
2022/05/31 03:33:08;;;;;;;5.77;3.50;;;9.20;99.90;;;;;;5075216;28;20222;-61
2022/05/31 03:35:35;;;;;;;4.80;3.43;;;9.20;99.90;;;;;;5075368;28;20214;-61
2022/05/31 03:38:01;;;;;;;4.37;2.83;;;9.20;99.90;;;;;;5075144;28;20580;-61
2022/05/31 03:43:12;;;;;;;6.03;3.27;;;9.30;99.90;;;;;;5075461;28;20222;-60
2022/05/31 03:45:41;;;;;;;6.83;3.23;;;9.30;99.90;;;;;;5075371;28;20269;-60
2022/05/31 03:48:11;;;;;;;6.50;3.10;;;9.40;99.90;;;;;;5075001;28;20344;-60
2022/05/31 03:50:39;;;;;;;5.07;3.00;;;9.40;99.90;;;;;;5075164;28;20782;-60
2022/05/31 03:53:06;;;;;;;4.10;2.80;;;9.40;99.90;;;;;;5075257;28;20231;-60
2022/05/31 03:55:32;;;;;;;5.57;2.90;;;9.40;99.90;;;;;;5075136;28;20203;-62
2022/05/31 03:57:59;;;;;;;7.13;3.50;;;9.50;99.90;;;;;;5074897;28;20226;-61
2022/05/31 04:00:26;;;;;;;4.20;2.90;;;9.50;99.90;;;;;;5075096;28;20215;-61
2022/05/31 04:02:55;;;;;;;4.03;2.90;;;9.50;99.90;;;;;;5074831;28;20226;-60
2022/05/31 04:05:23;;;;;;;4.27;2.70;;;9.60;99.90;;;;;;5075049;28;20217;-61
2022/05/31 04:07:51;;;;;;;4.50;3.07;;;9.50;99.90;;;;;;5074369;28;20276;-61
2022/05/31 04:10:18;;;;;;;3.83;2.80;;;9.50;99.90;;;;;;5075184;28;20260;-61
2022/05/31 04:12:44;;;;;;;6.83;2.70;;;9.60;99.90;;;;;;5074722;28;20256;-61
2022/05/31 04:15:11;;;;;;;5.33;3.10;;;9.60;99.90;;;;;;5074792;28;20219;-61
2022/05/31 04:17:38;;;;;;;5.27;2.77;;;9.60;99.90;;;;;;5074489;28;20227;-61
2022/05/31 04:20:06;;;;;;;6.83;3.23;;;9.70;99.90;;;;;;5074754;28;20203;-60
2022/05/31 04:22:34;;;;;;;3.87;2.43;;;9.60;99.90;;;;;;5074301;28;20211;-61
2022/05/31 04:25:02;;;;;;;5.13;3.10;;;9.70;99.90;;;;;;5074760;28;20213;-61
2022/05/31 04:27:29;;;;;;;6.27;3.20;;;9.70;99.90;;;;;;5074343;28;20303;-61
2022/05/31 04:29:56;;;;;;;6.20;3.10;;;9.70;99.90;;;;;;5074644;28;20626;-61
2022/05/31 04:32:23;;;;;;;5.57;3.10;;;9.70;99.90;;;;;;5074638;28;20276;-61
2022/05/31 04:34:50;;;;;;;4.93;2.97;;;9.70;99.90;;;;;;5074137;28;20235;-61
2022/05/31 04:37:17;;;;;;;5.70;2.90;;;9.70;99.90;;;;;;5073880;28;20273;-60
2022/05/31 04:39:45;;;;;;;3.50;2.97;;;9.70;99.90;;;;;;5073679;28;20208;-60
2022/05/31 04:42:12;;;;;;;10.53;3.17;;;9.70;99.90;;;;;;5074187;28;20621;-60
2022/05/31 04:44:39;;;;;;;4.73;2.67;;;9.80;99.90;;;;;;5074172;28;20235;-60
2022/05/31 04:47:07;;;;;;;4.27;3.20;;;9.80;99.90;;;;;;5073870;28;20202;-60
2022/05/31 04:49:34;;;;;;;4.37;2.60;;;9.80;99.90;;;;;;5073801;28;20260;-60
2022/05/31 04:52:00;;;;;;;5.10;2.93;;;9.80;99.90;;;;;;5073130;28;20726;-62
2022/05/31 04:54:30;;;;;;;6.00;2.47;;;9.90;99.90;;;;;;5072102;28;21086;-60
2022/05/31 04:56:59;;;;;;;7.27;3.30;;;9.90;99.90;;;;;;5073521;28;20215;-60
2022/05/31 04:59:27;;;;;;;7.83;2.80;;;10.00;99.90;;;;;;5073859;28;20215;-60
2022/05/31 05:01:53;;;;;;;3.20;2.70;;;10.00;99.90;;;;;;5073548;28;20584;-60
2022/05/31 05:04:20;;;;;;;4.73;3.30;;;10.10;99.90;;;;;;5073559;28;20228;-60
2022/05/31 05:06:47;;;;;;;4.13;2.80;;;10.10;99.90;;;;;;5073722;28;20655;-60
2022/05/31 05:09:13;;;;;;;5.37;3.07;;;10.10;89.60;;;;;;5074714;28;20207;-60
2022/05/31 05:11:40;;;;;;;5.47;2.93;;;10.20;83.40;;;;;;5073648;28;20216;-59
2022/05/31 05:14:08;;;;;;;7.20;2.70;;;10.20;96.80;;;;;;5073481;28;20232;-60
2022/05/31 05:16:35;;;;;;;3.57;2.73;;;10.20;70.80;;;;;;5072832;28;20220;-60
2022/05/31 05:19:02;;;;;;;4.43;2.80;;;10.20;38.80;;;;;;5073694;28;20270;-60
2022/05/31 05:21:28;;;;;;;4.20;2.77;;;10.20;41.60;;;;;;5073480;28;20212;-59
2022/05/31 05:23:56;;;;;;;4.97;2.80;;;10.30;46.80;;;;;;5066678;28;20308;-61
2022/05/31 05:26:22;;;;;;;4.23;2.80;;;10.30;15.10;;;;;;5069229;28;20209;-59
2022/05/31 05:31:36;;;;;;;4.40;2.80;;;10.40;1.00;;;;;;5072616;28;20208;-61
2022/05/31 05:34:04;;;;;;;6.77;2.63;;;10.50;4.50;;;;;;5072454;28;20327;-60
2022/05/31 05:36:31;;;;;;;3.93;2.63;;;10.60;13.00;;;;;;5062487;28;20214;-60
2022/05/31 05:38:57;;;;;;;6.87;3.50;;;10.60;4.20;;;;;;5052326;28;20225;-60
2022/05/31 05:41:26;;;;;;;6.90;3.47;;;10.70;4.30;;;;;;5052550;28;20275;-60
2022/05/31 05:43:52;;;;;;;3.57;3.27;;;10.70;5.40;;;;;;5054916;28;20232;-60
2022/05/31 05:46:22;;;;;;;7.60;4.80;;;10.60;17.90;;;;;;5071811;28;20265;-60
2022/05/31 05:48:51;;;;;;;8.07;4.20;;;10.60;46.00;;;;;;5072874;28;20307;-59
2022/05/31 05:51:20;;;;;;;4.63;3.83;;;10.50;99.90;;;;;;5071148;28;20627;-63
2022/05/31 05:53:46;;;;;;;7.40;4.07;;;10.30;99.90;;;;;;5072349;28;20284;-66
2022/05/31 05:56:14;;;;;;;6.63;4.40;;;10.30;99.90;;;;;;5070892;28;20219;-64
2022/05/31 05:58:42;;;;;;;6.73;4.30;;;10.20;1.00;;;;;;5072342;28;20773;-63
2022/05/31 06:01:11;;;;;;;6.07;3.97;;;10.20;1.00;;;;;;5071967;28;20265;-61
2022/05/31 06:03:43;;;;;;;11.20;4.50;;;10.20;1.00;;;;;;5070884;28;20229;-61
2022/05/31 06:06:13;;;;;;;4.90;3.73;;;10.20;1.00;;;;;;5070812;28;20207;-61
2022/05/31 06:08:46;;;;;;;9.57;4.50;;;10.30;1.00;;;;;;5070579;28;20210;-64
2022/05/31 06:11:17;;;;;;;6.90;3.97;;;10.50;1.00;;;;;;5070529;28;20278;-62
2022/05/31 06:13:49;;;;;;;7.27;4.37;;;10.60;1.00;;;;;;5071327;28;20238;-62
2022/05/31 06:16:17;;;;;;;5.57;4.10;;;10.70;52.90;;;;;;5070784;28;20216;-61
2022/05/31 06:18:48;;;;;;;5.87;3.70;;;10.90;99.90;;;;;;5071471;28;20275;-63
2022/05/31 06:21:19;;;;;;;4.80;4.07;;;11.00;1.00;;;;;;5071541;28;20212;-63
2022/05/31 06:23:46;;;;;;;7.07;3.73;;;11.20;1.00;;;;;;5071713;28;20786;-63
2022/05/31 06:26:13;;;;;;;5.60;3.90;;;11.20;99.90;;;;;;5070744;28;20205;-62
2022/05/31 06:28:40;;;;;;;6.57;3.70;;;11.30;99.90;;;;;;5071293;28;20201;-62
2022/05/31 06:31:06;;;;;;;6.30;3.40;;;11.40;99.90;;;;;;5071142;28;20213;-62
2022/05/31 06:33:33;;;;;;;6.93;3.53;;;11.40;99.90;;;;;;5071389;28;20270;-63
2022/05/31 06:36:01;;;;;;;5.67;3.10;;;11.60;99.90;;;;;;5069824;28;20270;-62
2022/05/31 06:38:29;;;;;;;5.43;2.90;;;11.70;99.90;;;;;;5071301;28;20257;-61
2022/05/31 06:40:56;;;;;;;4.87;3.50;;;11.90;99.90;;;;;;5071244;28;20608;-61
2022/05/31 06:43:23;;;;;;;4.67;3.70;;;12.00;99.90;;;;;;5071555;28;20234;-61
2022/05/31 06:45:50;;;;;;;6.93;3.50;;;12.10;99.90;;;;;;5071131;28;20209;-61
2022/05/31 06:48:17;;;;;;;5.73;3.63;;;12.20;99.90;;;;;;5070729;28;20275;-61
2022/05/31 06:50:44;;;;;;;5.80;3.23;;;12.20;40.90;;;;;;5071372;28;20239;-61
2022/05/31 06:58:57;;;;;;;6.20;3.20;;;12.30;5.80;;;;;;5048185;28;20232;-60
2022/05/31 07:01:30;;;;;;;4.23;3.07;;;12.30;1.00;;;;;;5048159;28;20198;-62
2022/05/31 07:03:58;;;;;;;5.20;3.33;;;12.20;1.00;;;;;;5058870;28;20235;-58
2022/05/31 07:06:24;;;;;;;4.70;3.70;;;12.10;1.00;;;;;;5070582;28;20205;-57
2022/05/31 07:08:51;;;;;;;5.80;3.87;;;12.00;1.00;;;;;;5071025;28;20204;-59
2022/05/31 07:11:19;;;;;;;4.90;3.60;;;12.00;1.00;;;;;;5070554;28;20201;-59
2022/05/31 07:13:46;;;;;;;6.30;3.93;;;11.90;1.00;;;;;;5071208;28;20233;-59
2022/05/31 07:16:12;;;;;;;5.00;3.83;;;11.80;1.00;;;;;;5069798;28;20232;-60
2022/05/31 07:18:39;;;;;;;5.57;3.97;;;11.80;1.00;;;;;;5070923;28;20225;-60
2022/05/31 07:21:06;;;;;;;6.03;4.20;;;11.80;5.00;;;;;;5070457;28;20753;-63
2022/05/31 07:23:32;;;;;;;6.87;4.17;;;11.90;93.60;;;;;;5070692;28;20331;-61
2022/05/31 07:26:00;;;;;;;8.47;4.23;;;11.90;94.50;;;;;;5069982;28;20208;-61
2022/05/31 07:28:28;;;;;;;6.50;4.10;;;11.80;34.10;;;;;;5070876;28;20204;-62
2022/05/31 07:30:55;;;;;;;6.97;4.67;;;11.80;83.10;;;;;;5071066;28;20591;-61
2022/05/31 07:33:22;;;;;;;7.30;4.50;;;11.70;99.90;;;;;;5070414;28;20232;-61
2022/05/31 07:35:49;;;;;;;6.90;4.40;;;11.60;99.90;;;;;;5070355;28;20262;-60
2022/05/31 07:38:16;;;;;;;6.40;4.30;;;11.50;99.90;;;;;;5069796;28;20229;-59
2022/05/31 07:40:44;;;;;;;13.63;5.03;;;11.60;99.90;;;;;;5070688;28;20204;-60
2022/05/31 07:43:11;;;;;;;13.43;6.43;;;11.50;99.90;;;;;;5070155;28;20581;-61
2022/05/31 07:45:39;;;;;;;8.20;6.03;;;11.50;1.00;;;;;;5070241;28;20311;-59
2022/05/31 07:48:07;;;;;;;11.83;6.10;;;11.50;43.50;;;;;;5070470;28;20270;-57
2022/05/31 07:50:34;;;;;;;12.27;6.77;;;11.60;99.90;;;;;;5070406;28;20201;-58
2022/05/31 07:53:01;;;;;;;9.07;6.37;;;11.60;99.90;;;;;;5070435;28;20233;-57
2022/05/31 07:55:28;;;;;;;14.13;8.13;;;11.60;1.00;;;;;;5070818;28;20237;-66
2022/05/31 08:00:41;;;;;;;12.60;7.63;;;11.50;99.90;;;;;;5070303;28;20212;-62
2022/05/31 08:03:08;;;;;;;14.00;7.93;;;11.30;99.90;;;;;;5070456;28;20245;-61
2022/05/31 08:05:37;;;;;;;12.30;8.27;;;11.20;99.90;;;;;;5069597;28;20208;-63
2022/05/31 08:08:04;;;;;;;10.07;7.57;;;11.20;1.00;;;;;;5070048;28;20239;-62
2022/05/31 08:10:31;;;;;;;11.97;8.13;;;11.10;1.00;;;;;;5070777;28;20620;-61
2022/05/31 08:12:57;;;;;;;12.87;8.73;;;10.90;1.00;;;;;;5070125;28;20645;-61
2022/05/31 08:15:24;;;;;;;13.70;8.53;;;10.80;99.90;;;;;;5073538;28;20266;-62
2022/05/31 08:17:52;;;;;;;15.70;9.13;;;10.80;1.00;;;;;;5073016;28;20212;-61
2022/05/31 08:20:19;;;;;;;13.03;9.13;;;10.90;99.90;;;;;;5074305;28;20212;-62
2022/05/31 08:22:48;;;;;;;15.20;9.00;;;10.80;99.90;;;;;;5074024;28;20209;-63
2022/05/31 08:25:15;;;;;;;14.27;8.53;;;11.00;99.90;;;;;;5073650;28;20291;-64
2022/05/31 08:27:42;;;;;;;14.83;8.17;;;11.00;99.90;;;;;;5073620;28;20257;-64
2022/05/31 08:30:09;;;;;;;11.63;8.17;;;11.10;99.90;;;;;;5073591;28;20206;-63
2022/05/31 08:32:37;;;;;;;14.63;7.67;;;11.00;1.00;;;;;;5073719;28;20209;-63
2022/05/31 08:35:07;;;;;;;12.30;8.23;;;11.20;99.90;;;;;;5073384;28;20211;-63
2022/05/31 08:37:34;;;;;;;12.00;7.83;;;11.40;99.90;;;;;;5073227;28;20729;-63
2022/05/31 08:40:01;;;;;;;10.60;7.60;;;11.40;99.90;;;;;;5073322;28;20294;-65
2022/05/31 08:42:41;;;;;;;10.77;7.37;;;11.30;99.90;;;;;;5073889;28;20208;-64
2022/05/31 08:45:13;;;;;;;11.40;7.73;;;11.30;99.90;;;;;;5073127;28;20208;-65
2022/05/31 08:47:45;;;;;;;11.83;7.73;;;11.30;99.90;;;;;;5073154;28;20632;-63
2022/05/31 08:53:21;;;;;;;9.67;7.23;;;11.30;99.90;;;;;;5073416;28;20232;-64
2022/05/31 08:58:44;;;;;;;12.00;6.67;;;11.40;99.90;;;;;;5073192;28;20230;-61
2022/05/31 09:01:14;;;;;;;10.80;6.87;;;11.40;35.30;;;;;;5073667;28;20258;-63
2022/05/31 09:03:44;;;;;;;10.10;6.77;;;11.40;1.00;;;;;;5072578;28;20635;-62
2022/05/31 09:06:16;;;;;;;11.07;6.77;;;11.40;99.90;;;;;;5072969;28;20208;-62
2022/05/31 09:08:48;;;;;;;14.10;7.33;;;11.60;99.90;;;;;;5073049;28;20205;-61
2022/05/31 09:11:20;;;;;;;13.03;6.17;;;11.70;99.90;;;;;;5073123;28;20201;-61
2022/05/31 09:13:53;;;;;;;11.07;6.67;;;11.80;19.00;;;;;;5072761;28;20229;-61
2022/05/31 09:16:34;;;;;;;10.47;6.30;;;12.00;53.50;;;;;;5072185;28;20216;-61
2022/05/31 09:19:05;;;;;;;10.00;6.00;;;12.20;99.90;;;;;;5072946;28;20225;-60
2022/05/31 09:21:37;;;;;;;13.70;6.40;;;12.50;1.00;;;;;;5073087;28;20251;-60
2022/05/31 09:24:05;;;;;;;8.77;6.13;;;12.70;78.20;;;;;;5072810;28;20225;-62
2022/05/31 09:27:04;;;;;;;12.03;6.70;;;12.90;99.90;;;;;;5071967;28;20275;-61
2022/05/31 09:29:40;;;;;;;13.83;6.13;;;13.00;99.90;;;;;;5072929;28;20561;-60
2022/05/31 09:32:14;;;;;;;11.00;6.33;;;13.00;99.90;;;;;;5072594;28;20259;-60
2022/05/31 09:35:10;;;;;;;10.80;5.23;;;13.20;1.00;;;;;;5072857;28;20271;-62
2022/05/31 09:37:52;;;;;;;6.27;5.43;;;13.20;1.00;;;;;;5072042;28;20581;-65
2022/05/31 09:40:39;;;;;;;7.87;5.23;;;13.30;1.00;;;;;;5072632;28;20721;-65
2022/05/31 09:43:23;;;;;;;8.17;5.00;;;13.40;1.00;;;;;;5072367;28;20221;-62
2022/05/31 09:45:54;;;;;;;8.30;5.37;;;13.50;1.00;;;;;;5072287;28;20211;-61
2022/05/31 09:48:21;;;;;;;8.13;4.70;;;13.60;99.90;;;;;;5072390;28;20216;-61
2022/05/31 09:50:48;;;;;;;7.83;5.33;;;13.70;99.90;;;;;;5072448;28;20258;-63
2022/05/31 09:59:05;;;;;;;9.50;5.30;;;14.10;99.90;;;;;;5072087;28;20227;-63
2022/05/31 10:01:32;;;;;;;8.97;5.40;;;14.10;73.60;;;;;;5072638;28;20209;-63
2022/05/31 10:04:08;;;;;;;7.93;4.80;;;14.00;99.90;;;;;;5072032;28;20278;-64
2022/05/31 10:06:50;;;;;;;8.57;4.77;;;14.00;1.00;;;;;;5071292;28;20212;-62
2022/05/31 10:09:21;;;;;;;6.93;4.50;;;14.00;1.00;;;;;;5071881;28;20205;-62
2022/05/31 10:11:49;;;;;;;11.80;4.97;;;14.10;1.00;;;;;;5071801;28;20209;-62
2022/05/31 10:14:23;;;;;;;10.97;5.13;;;14.30;27.50;;;;;;5071883;28;20225;-61
2022/05/31 10:16:50;;;;;;;7.87;5.20;;;14.30;1.00;;;;;;5070793;28;20204;-61
2022/05/31 10:19:25;;;;;;;6.90;4.90;;;14.10;1.00;;;;;;5071566;28;20232;-62
2022/05/31 10:21:53;;;;;;;8.40;5.27;;;13.90;1.00;;;;;;5071350;28;20203;-62
2022/05/31 10:24:25;;;;;;;10.80;5.20;;;13.80;1.00;;;;;;5071859;28;20227;-62
2022/05/31 10:27:06;;;;;;;8.00;5.33;;;13.60;1.00;;;;;;5070931;28;20211;-59
2022/05/31 10:29:41;;;;;;;8.20;4.83;;;13.70;1.00;;;;;;5070778;28;20203;-61
2022/05/31 10:32:27;;;;;;;9.63;5.67;;;13.80;1.00;;;;;;5071921;28;20204;-59
2022/05/31 10:35:15;;;;;;;6.87;5.00;;;13.80;1.00;;;;;;5071511;28;20225;-62
2022/05/31 10:37:55;;;;;;;10.07;4.80;;;13.90;1.00;;;;;;5066460;28;20207;-60
2022/05/31 10:40:27;;;;;;;7.73;4.80;;;14.10;1.00;;;;;;5071841;28;20642;-62
2022/05/31 10:42:58;;;;;;;5.10;4.17;;;14.30;1.00;;;;;;5070927;28;20791;-61
2022/05/31 10:45:28;;;;;;;7.00;4.60;;;14.60;1.00;;;;;;5070199;28;20212;-62
2022/05/31 10:47:57;;;;;;;8.80;4.83;;;14.90;99.90;;;;;;5070605;28;20209;-61
2022/05/31 10:50:33;;;;;;;9.87;5.23;;;15.20;99.90;;;;;;5071781;28;20235;-62
2022/05/31 10:53:13;;;;;;;6.20;4.27;;;15.60;1.00;;;;;;5071152;28;20224;-62
2022/05/31 10:55:44;;;;;;;7.93;3.63;;;15.60;1.00;;;;;;5071277;28;20213;-62
2022/05/31 10:58:33;;;;;;;6.63;4.10;;;15.60;99.90;;;;;;5070624;28;20623;-61
2022/05/31 11:01:07;;;;;;;5.43;3.70;;;15.50;99.90;;;;;;5071174;28;20667;-60
2022/05/31 11:03:40;;;;;;;4.90;4.13;;;15.50;99.90;;;;;;5071056;28;20228;-61
2022/05/31 11:06:18;;;;;;;4.43;3.63;;;15.00;99.90;;;;;;5070889;28;20208;-61
2022/05/31 11:12:00;;;;;;;10.43;4.27;;;15.30;99.90;;;;;;5070926;28;20330;-61
2022/05/31 11:14:50;;;;;;;4.57;3.20;;;15.70;99.90;;;;;;5070829;28;20225;-63
2022/05/31 11:17:42;;;;;;;6.20;2.80;;;16.00;99.90;;;;;;5070141;28;20657;-62
2022/05/31 11:20:16;;;;;;;6.47;3.40;;;16.20;99.90;;;;;;5070637;28;20225;-63
2022/05/31 11:22:56;;;;;;;5.33;3.30;;;16.30;99.90;;;;;;5070587;28;20254;-61
2022/05/31 11:25:40;;;;;;;4.13;2.97;;;16.60;99.90;;;;;;5070862;28;20596;-61
2022/05/31 11:28:24;;;;;;;5.63;3.70;;;16.50;99.90;;;;;;5071762;28;20274;-61
2022/05/31 11:31:08;;;;;;;4.60;3.37;;;16.60;99.90;;;;;;5071037;28;20201;-58
2022/05/31 11:33:51;;;;;;;6.37;3.40;;;16.70;99.90;;;;;;5070670;28;20324;-62
2022/05/31 11:36:26;;;;;;;3.77;3.00;;;16.70;99.90;;;;;;5070516;28;20742;-59
2022/05/31 11:39:02;;;;;;;5.33;3.57;;;17.00;99.90;;;;;;5070498;28;20208;-59
2022/05/31 11:41:35;;;;;;;5.73;3.50;;;17.30;99.90;;;;;;5070620;28;20208;-59
2022/05/31 11:44:49;;;;;;;5.17;3.53;;;17.70;99.90;;;;;;5070576;28;20311;-61
2022/05/31 11:47:30;;;;;;;5.33;3.80;;;17.90;99.90;;;;;;5045135;28;20209;-60
2022/05/31 11:50:06;;;;;;;3.53;2.83;;;17.90;99.90;;;;;;5073854;28;20660;-59
2022/05/31 11:52:45;;;;;;;4.60;3.17;;;17.70;99.90;;;;;;5074041;28;20212;-59
2022/05/31 11:55:28;;;;;;;6.43;3.90;;;17.60;99.90;;;;;;5074337;28;20209;-61
2022/05/31 11:58:18;;;;;;;5.90;3.53;;;17.70;99.90;;;;;;5073942;28;20208;-62
2022/05/31 12:00:51;;;;;;;4.83;3.57;;;17.80;99.90;;;;;;5074162;28;20225;-62
2022/05/31 12:03:23;;;;;;;6.97;3.80;;;17.70;99.90;;;;;;5074038;28;20266;-62
2022/05/31 12:05:54;;;;;;;6.20;3.53;;;17.80;99.90;;;;;;5073740;28;20686;-65
2022/05/31 12:08:28;;;;;;;4.67;3.33;;;17.90;99.90;;;;;;5074615;28;20205;-63
2022/05/31 12:10:59;;;;;;;4.40;2.90;;;17.90;99.90;;;;;;5073993;28;20211;-66
2022/05/31 12:13:27;;;;;;;4.80;2.90;;;18.00;99.90;;;;;;5073862;28;20228;-62
2022/05/31 12:15:56;;;;;;;3.73;2.90;;;18.10;99.90;;;;;;5073023;28;20224;-64
2022/05/31 12:18:31;;;;;;;3.00;2.47;;;18.10;99.90;;;;;;5074203;28;20278;-64
2022/05/31 12:21:02;;;;;;;4.80;2.90;;;18.20;99.90;;;;;;5073779;28;20228;-66
2022/05/31 12:23:36;;;;;;;4.53;2.67;;;18.20;99.90;;;;;;5075460;28;20279;-67
2022/05/31 12:26:26;;;;;;;3.33;2.20;;;18.40;99.90;;;;;;5066161;28;20213;-66
2022/05/31 12:29:00;;;;;;;5.13;2.37;;;18.30;99.90;;;;;;5061856;28;20288;-67
2022/05/31 12:31:31;;;;;;;3.60;2.03;;;18.50;99.90;;;;;;5056414;28;20212;-67
2022/05/31 12:34:13;;;;;;;2.63;2.13;;;18.40;99.90;;;;;;5053789;28;20222;-66
2022/05/31 12:36:56;;;;;;;2.70;1.93;;;18.40;99.90;;;;;;5053393;28;20212;-64
2022/05/31 12:39:27;;;;;;;2.90;2.07;;;18.50;99.90;;;;;;5053473;28;20291;-62
2022/05/31 12:41:55;;;;;;;3.20;2.50;;;18.20;99.90;;;;;;5054306;28;20206;-64
2022/05/31 12:44:30;;;;;;;7.30;2.40;;;18.50;99.90;;;;;;5060538;28;20225;-65
2022/05/31 12:47:13;;;;;;;4.40;1.90;;;18.50;99.90;;;;;;5072819;28;20743;-63
2022/05/31 12:49:51;;;;;;;4.00;2.20;;;18.60;99.90;;;;;;5073095;28;20212;-63
2022/05/31 12:55:36;;;;;;;2.43;2.10;;;18.00;99.90;;;;;;5066826;28;20338;-61
2022/05/31 13:00:52;;;;;;;5.30;3.07;;;18.50;99.90;;;;;;5072509;28;20266;-62
2022/05/31 13:03:52;;;;;;;3.10;2.20;;;18.70;99.90;;;;;;5072879;28;20286;-63
2022/05/31 13:06:24;;;;;;;4.87;2.40;;;18.80;99.90;;;;;;5070050;28;20779;-64
2022/05/31 13:08:59;;;;;;;2.53;2.00;;;18.90;99.90;;;;;;5072791;28;20210;-60
2022/05/31 13:20:09;;;;;;;2.83;1.90;;;18.70;99.90;;;;;;5072510;28;20270;-60
2022/05/31 13:22:38;;;;;;;3.37;1.77;;;18.90;99.90;;;;;;5072847;28;20263;-60
2022/05/31 13:25:13;;;;;;;4.37;2.10;;;18.90;99.90;;;;;;5072674;28;20205;-60
2022/05/31 13:27:40;;;;;;;3.93;2.20;;;18.70;99.90;;;;;;5072578;28;20592;-60
2022/05/31 13:30:13;;;;;;;2.63;2.10;;;18.70;99.90;;;;;;5072875;28;20586;-61
2022/05/31 13:32:40;;;;;;;2.87;1.27;;;19.00;99.90;;;;;;5072978;28;20255;-60
2022/05/31 13:35:11;;;;;;;1.17;0.83;;;19.30;99.90;;;;;;5072617;28;20726;-60
2022/05/31 13:37:51;;;;;;;1.60;1.10;;;19.40;99.90;;;;;;5072712;28;20250;-60
2022/05/31 13:40:20;;;;;;;2.40;1.23;;;19.60;99.90;;;;;;5072607;28;20307;-61
2022/05/31 13:42:47;;;;;;;2.77;1.70;;;19.50;99.90;;;;;;5072022;28;20205;-68
2022/05/31 13:45:19;;;;;;;2.63;1.30;;;19.40;99.90;;;;;;5072403;28;20247;-63
2022/05/31 13:47:51;;;;;;;1.20;1.10;;;19.40;99.90;;;;;;5072881;28;20213;-62
2022/05/31 13:50:20;;;;;;;1.63;1.10;;;19.60;99.90;;;;;;5072747;28;20208;-63
2022/05/31 13:52:51;;;;;;;3.13;1.43;;;19.80;99.90;;;;;;5072481;28;20213;-63
2022/05/31 13:55:22;;;;;;;1.70;1.60;;;19.70;99.90;;;;;;5072599;28;20205;-63
2022/05/31 13:57:52;;;;;;;2.90;1.63;;;19.30;99.90;;;;;;5072188;28;20295;-63